sensor_id;sensor_type;location;lat;lon;timestamp;pressure;altitude;pressure_sealevel;temperature;humidity
63096;BME280;49184;55.596;37.770;2023-07-13T00:00:56;98708.38;;;14.12;70.99
63096;BME280;49184;55.596;37.770;2023-07-13T00:03:21;98712.28;;;14.11;71.08
63096;BME280;49184;55.596;37.770;2023-07-13T00:05:52;98717.06;;;14.14;71.07
63096;BME280;49184;55.596;37.770;2023-07-13T00:08:22;98704.03;;;14.11;71.15
63096;BME280;49184;55.596;37.770;2023-07-13T00:10:48;98711.47;;;14.10;71.45
63096;BME280;49184;55.596;37.770;2023-07-13T00:13:20;98710.75;;;14.14;71.07
63096;BME280;49184;55.596;37.770;2023-07-13T00:15:45;98712.72;;;14.13;71.16
63096;BME280;49184;55.596;37.770;2023-07-13T00:18:12;98713.25;;;14.19;70.77
63096;BME280;49184;55.596;37.770;2023-07-13T00:20:37;98718.66;;;14.15;71.00
63096;BME280;49184;55.596;37.770;2023-07-13T00:23:03;98709.72;;;14.18;70.79
63096;BME280;49184;55.596;37.770;2023-07-13T00:25:29;98708.22;;;14.21;70.79
63096;BME280;49184;55.596;37.770;2023-07-13T00:27:55;98716.09;;;14.22;70.02
63096;BME280;49184;55.596;37.770;2023-07-13T00:30:21;98707.06;;;14.22;70.04
63096;BME280;49184;55.596;37.770;2023-07-13T00:32:47;98716.00;;;14.19;69.95
63096;BME280;49184;55.596;37.770;2023-07-13T00:35:13;98716.28;;;14.29;69.83
63096;BME280;49184;55.596;37.770;2023-07-13T00:37:40;98724.91;;;14.28;69.73
63096;BME280;49184;55.596;37.770;2023-07-13T00:40:06;98716.19;;;14.26;69.88
63096;BME280;49184;55.596;37.770;2023-07-13T00:42:32;98722.41;;;14.23;69.70
63096;BME280;49184;55.596;37.770;2023-07-13T00:45:02;98718.16;;;14.25;69.86
63096;BME280;49184;55.596;37.770;2023-07-13T00:47:29;98719.91;;;14.18;70.12
63096;BME280;49184;55.596;37.770;2023-07-13T00:49:55;98723.09;;;14.20;69.99
63096;BME280;49184;55.596;37.770;2023-07-13T00:52:20;98720.00;;;14.21;70.08
63096;BME280;49184;55.596;37.770;2023-07-13T00:54:46;98713.25;;;14.19;70.10
63096;BME280;49184;55.596;37.770;2023-07-13T00:57:14;98716.00;;;14.19;69.94
63096;BME280;49184;55.596;37.770;2023-07-13T00:59:41;98720.72;;;14.18;70.43
63096;BME280;49184;55.596;37.770;2023-07-13T01:02:10;98720.91;;;14.25;70.23
63096;BME280;49184;55.596;37.770;2023-07-13T01:04:37;98719.31;;;14.24;70.21
63096;BME280;49184;55.596;37.770;2023-07-13T01:07:06;98720.44;;;14.23;70.20
63096;BME280;49184;55.596;37.770;2023-07-13T01:09:39;98713.34;;;14.22;70.18
63096;BME280;49184;55.596;37.770;2023-07-13T01:12:04;98711.41;;;14.23;70.40
63096;BME280;49184;55.596;37.770;2023-07-13T01:14:30;98712.09;;;14.20;70.42
63096;BME280;49184;55.596;37.770;2023-07-13T01:16:56;98708.66;;;14.23;70.43
63096;BME280;49184;55.596;37.770;2023-07-13T01:19:33;98717.69;;;14.23;70.59
63096;BME280;49184;55.596;37.770;2023-07-13T01:22:05;98720.81;;;14.22;70.88
63096;BME280;49184;55.596;37.770;2023-07-13T01:24:36;98712.56;;;14.22;70.85
63096;BME280;49184;55.596;37.770;2023-07-13T01:27:02;98706.69;;;14.23;70.97
63096;BME280;49184;55.596;37.770;2023-07-13T01:29:29;98712.56;;;14.22;70.93
63096;BME280;49184;55.596;37.770;2023-07-13T01:31:55;98717.97;;;14.18;70.99
63096;BME280;49184;55.596;37.770;2023-07-13T01:34:21;98699.16;;;14.20;71.08
63096;BME280;49184;55.596;37.770;2023-07-13T01:36:48;98695.97;;;14.18;70.88
63096;BME280;49184;55.596;37.770;2023-07-13T01:39:14;98690.09;;;14.20;71.08
63096;BME280;49184;55.596;37.770;2023-07-13T01:41:41;98696.41;;;14.20;71.28
63096;BME280;49184;55.596;37.770;2023-07-13T01:44:13;98697.31;;;14.24;71.19
63096;BME280;49184;55.596;37.770;2023-07-13T01:46:38;98685.16;;;14.25;71.48
63096;BME280;49184;55.596;37.770;2023-07-13T01:49:04;98697.31;;;14.24;71.30
63096;BME280;49184;55.596;37.770;2023-07-13T01:51:30;98699.59;;;14.22;71.12
63096;BME280;49184;55.596;37.770;2023-07-13T01:53:57;98693.22;;;14.18;71.34
63096;BME280;49184;55.596;37.770;2023-07-13T01:56:23;98696.31;;;14.17;71.44
63096;BME280;49184;55.596;37.770;2023-07-13T01:58:49;98693.94;;;14.15;71.90
63096;BME280;49184;55.596;37.770;2023-07-13T02:01:15;98686.38;;;14.12;71.83
63096;BME280;49184;55.596;37.770;2023-07-13T02:03:41;98690.81;;;14.17;72.00
63096;BME280;49184;55.596;37.770;2023-07-13T02:06:08;98688.63;;;14.22;71.57
63096;BME280;49184;55.596;37.770;2023-07-13T02:08:34;98698.13;;;14.25;71.65
63096;BME280;49184;55.596;37.770;2023-07-13T02:11:00;98691.81;;;14.24;71.84
63096;BME280;49184;55.596;37.770;2023-07-13T02:13:27;98680.03;;;14.24;71.43
63096;BME280;49184;55.596;37.770;2023-07-13T02:15:52;98689.41;;;14.23;71.97
63096;BME280;49184;55.596;37.770;2023-07-13T02:18:18;98682.03;;;14.27;71.37
63096;BME280;49184;55.596;37.770;2023-07-13T02:21:04;98691.22;;;14.31;71.78
63096;BME280;49184;55.596;37.770;2023-07-13T02:23:30;98687.66;;;14.30;71.96
63096;BME280;49184;55.596;37.770;2023-07-13T02:25:56;98688.69;;;14.26;71.93
63096;BME280;49184;55.596;37.770;2023-07-13T02:28:22;98688.38;;;14.27;71.54
63096;BME280;49184;55.596;37.770;2023-07-13T02:30:49;98685.81;;;14.34;71.69
63096;BME280;49184;55.596;37.770;2023-07-13T02:33:15;98682.97;;;14.31;71.53
63096;BME280;49184;55.596;37.770;2023-07-13T02:35:41;98680.13;;;14.27;71.74
63096;BME280;49184;55.596;37.770;2023-07-13T02:38:06;98676.38;;;14.36;71.75
63096;BME280;49184;55.596;37.770;2023-07-13T02:40:33;98682.69;;;14.36;71.58
63096;BME280;49184;55.596;37.770;2023-07-13T02:43:01;98676.84;;;14.38;71.71
63096;BME280;49184;55.596;37.770;2023-07-13T02:45:30;98685.09;;;14.38;71.69
63096;BME280;49184;55.596;37.770;2023-07-13T02:47:56;98674.53;;;14.40;71.88
63096;BME280;49184;55.596;37.770;2023-07-13T02:50:22;98670.34;;;14.46;71.91
63096;BME280;49184;55.596;37.770;2023-07-13T02:52:48;98671.25;;;14.50;71.88
63096;BME280;49184;55.596;37.770;2023-07-13T02:58:13;98664.34;;;14.56;71.96
63096;BME280;49184;55.596;37.770;2023-07-13T03:00:42;98662.94;;;14.62;71.55
63096;BME280;49184;55.596;37.770;2023-07-13T03:03:09;98666.56;;;14.66;71.73
63096;BME280;49184;55.596;37.770;2023-07-13T03:05:37;98669.31;;;14.66;71.33
63096;BME280;49184;55.596;37.770;2023-07-13T03:08:03;98661.88;;;14.67;71.37
63096;BME280;49184;55.596;37.770;2023-07-13T03:10:30;98673.31;;;14.69;71.58
63096;BME280;49184;55.596;37.770;2023-07-13T03:12:56;98670.31;;;14.74;71.57
63096;BME280;49184;55.596;37.770;2023-07-13T03:15:25;98674.13;;;14.69;71.16
63096;BME280;49184;55.596;37.770;2023-07-13T03:17:53;98669.78;;;14.68;71.64
63096;BME280;49184;55.596;37.770;2023-07-13T03:20:20;98666.66;;;14.70;71.41
63096;BME280;49184;55.596;37.770;2023-07-13T03:22:46;98666.31;;;14.71;71.44
63096;BME280;49184;55.596;37.770;2023-07-13T03:25:12;98669.41;;;14.70;71.37
63096;BME280;49184;55.596;37.770;2023-07-13T03:27:39;98674.03;;;14.66;71.60
63096;BME280;49184;55.596;37.770;2023-07-13T03:30:08;98672.69;;;14.60;71.82
63096;BME280;49184;55.596;37.770;2023-07-13T03:32:34;98680.59;;;14.61;71.98
63096;BME280;49184;55.596;37.770;2023-07-13T03:35:00;98677.41;;;14.59;72.04
63096;BME280;49184;55.596;37.770;2023-07-13T03:37:29;98678.66;;;14.62;72.03
63096;BME280;49184;55.596;37.770;2023-07-13T03:39:55;98679.63;;;14.69;72.12
63096;BME280;49184;55.596;37.770;2023-07-13T03:42:21;98670.03;;;14.63;72.03
63096;BME280;49184;55.596;37.770;2023-07-13T03:44:46;98675.09;;;14.61;71.88
63096;BME280;49184;55.596;37.770;2023-07-13T03:47:18;98684.88;;;14.59;72.48
63096;BME280;49184;55.596;37.770;2023-07-13T03:49:44;98671.56;;;14.61;72.40
63096;BME280;49184;55.596;37.770;2023-07-13T03:52:12;98677.94;;;14.65;72.30
63096;BME280;49184;55.596;37.770;2023-07-13T03:54:38;98682.19;;;14.62;71.89
63096;BME280;49184;55.596;37.770;2023-07-13T03:57:05;98675.72;;;14.70;72.01
63096;BME280;49184;55.596;37.770;2023-07-13T03:59:33;98673.84;;;14.74;72.33
63096;BME280;49184;55.596;37.770;2023-07-13T04:02:01;98680.59;;;14.77;71.59
63096;BME280;49184;55.596;37.770;2023-07-13T04:04:32;98679.06;;;14.79;71.49
63096;BME280;49184;55.596;37.770;2023-07-13T04:06:58;98693.53;;;14.92;71.19
63096;BME280;49184;55.596;37.770;2023-07-13T04:09:24;98681.72;;;14.92;70.88
63096;BME280;49184;55.596;37.770;2023-07-13T04:11:50;98682.34;;;15.01;70.96
63096;BME280;49184;55.596;37.770;2023-07-13T04:14:16;98694.84;;;15.14;70.37
63096;BME280;49184;55.596;37.770;2023-07-13T04:16:42;98692.44;;;15.13;70.90
63096;BME280;49184;55.596;37.770;2023-07-13T04:19:09;98687.75;;;15.13;70.71
63096;BME280;49184;55.596;37.770;2023-07-13T04:21:36;98692.09;;;15.14;70.54
63096;BME280;49184;55.596;37.770;2023-07-13T04:24:02;98697.13;;;15.12;70.44
63096;BME280;49184;55.596;37.770;2023-07-13T04:26:29;98688.16;;;15.15;70.87
63096;BME280;49184;55.596;37.770;2023-07-13T04:28:55;98686.38;;;15.23;70.81
63096;BME280;49184;55.596;37.770;2023-07-13T04:31:46;98688.59;;;15.33;70.33
63096;BME280;49184;55.596;37.770;2023-07-13T04:34:19;98683.56;;;15.39;69.71
63096;BME280;49184;55.596;37.770;2023-07-13T04:36:45;98685.91;;;15.37;70.30
63096;BME280;49184;55.596;37.770;2023-07-13T04:39:11;98679.94;;;15.35;70.89
63096;BME280;49184;55.596;37.770;2023-07-13T04:41:41;98681.25;;;15.41;70.14
63096;BME280;49184;55.596;37.770;2023-07-13T04:44:07;98677.34;;;15.42;69.98
63096;BME280;49184;55.596;37.770;2023-07-13T04:46:33;98678.84;;;15.39;70.10
63096;BME280;49184;55.596;37.770;2023-07-13T04:48:59;98675.59;;;15.34;69.87
63096;BME280;49184;55.596;37.770;2023-07-13T04:51:26;98670.81;;;15.31;70.61
63096;BME280;49184;55.596;37.770;2023-07-13T04:53:52;98662.97;;;15.33;70.35
63096;BME280;49184;55.596;37.770;2023-07-13T04:56:18;98678.06;;;15.39;70.76
63096;BME280;49184;55.596;37.770;2023-07-13T04:58:45;98680.63;;;15.47;70.64
63096;BME280;49184;55.596;37.770;2023-07-13T05:01:11;98679.44;;;15.48;70.06
63096;BME280;49184;55.596;37.770;2023-07-13T05:03:37;98677.56;;;15.52;69.75
63096;BME280;49184;55.596;37.770;2023-07-13T05:06:04;98679.97;;;15.54;69.81
63096;BME280;49184;55.596;37.770;2023-07-13T05:08:36;98687.66;;;15.64;70.39
63096;BME280;49184;55.596;37.770;2023-07-13T05:11:03;98681.69;;;15.62;69.56
63096;BME280;49184;55.596;37.770;2023-07-13T05:13:28;98677.13;;;15.66;69.40
63096;BME280;49184;55.596;37.770;2023-07-13T05:15:55;98673.34;;;15.74;69.73
63096;BME280;49184;55.596;37.770;2023-07-13T05:18:21;98684.94;;;15.84;69.32
63096;BME280;49184;55.596;37.770;2023-07-13T05:20:47;98678.72;;;15.87;68.82
63096;BME280;49184;55.596;37.770;2023-07-13T05:23:19;98684.03;;;15.99;69.07
63096;BME280;49184;55.596;37.770;2023-07-13T05:25:48;98684.13;;;16.03;68.82
63096;BME280;49184;55.596;37.770;2023-07-13T05:28:17;98684.94;;;16.03;68.67
63096;BME280;49184;55.596;37.770;2023-07-13T05:30:46;98685.56;;;16.16;68.90
63096;BME280;49184;55.596;37.770;2023-07-13T05:33:12;98684.28;;;16.33;67.91
63096;BME280;49184;55.596;37.770;2023-07-13T05:35:38;98685.34;;;16.48;68.13
63096;BME280;49184;55.596;37.770;2023-07-13T05:38:07;98690.22;;;16.58;67.36
63096;BME280;49184;55.596;37.770;2023-07-13T05:40:33;98692.81;;;16.70;65.43
63096;BME280;49184;55.596;37.770;2023-07-13T05:42:58;98691.59;;;16.67;65.17
63096;BME280;49184;55.596;37.770;2023-07-13T05:45:24;98693.59;;;16.71;65.36
63096;BME280;49184;55.596;37.770;2023-07-13T05:47:51;98686.31;;;16.82;64.02
63096;BME280;49184;55.596;37.770;2023-07-13T05:50:17;98683.75;;;16.93;64.62
63096;BME280;49184;55.596;37.770;2023-07-13T05:52:43;98682.00;;;17.07;64.66
63096;BME280;49184;55.596;37.770;2023-07-13T05:55:09;98679.41;;;17.22;64.16
63096;BME280;49184;55.596;37.770;2023-07-13T05:57:35;98683.25;;;17.40;64.02
63096;BME280;49184;55.596;37.770;2023-07-13T06:00:00;98684.88;;;17.45;62.08
63096;BME280;49184;55.596;37.770;2023-07-13T06:02:27;98681.09;;;17.56;62.65
63096;BME280;49184;55.596;37.770;2023-07-13T06:04:53;98672.75;;;17.53;62.18
63096;BME280;49184;55.596;37.770;2023-07-13T06:07:22;98672.41;;;17.58;61.52
63096;BME280;49184;55.596;37.770;2023-07-13T06:09:48;98671.72;;;17.65;61.72
63096;BME280;49184;55.596;37.770;2023-07-13T06:12:13;98670.16;;;17.67;61.48
63096;BME280;49184;55.596;37.770;2023-07-13T06:14:39;98667.03;;;17.69;60.23
63096;BME280;49184;55.596;37.770;2023-07-13T06:17:05;98672.63;;;17.72;59.90
63096;BME280;49184;55.596;37.770;2023-07-13T06:19:31;98673.84;;;17.75;59.39
63096;BME280;49184;55.596;37.770;2023-07-13T06:21:57;98675.13;;;17.84;59.52
63096;BME280;49184;55.596;37.770;2023-07-13T06:24:24;98680.84;;;17.99;59.37
63096;BME280;49184;55.596;37.770;2023-07-13T06:26:50;98666.34;;;18.09;59.70
63096;BME280;49184;55.596;37.770;2023-07-13T06:29:16;98662.88;;;18.19;58.23
63096;BME280;49184;55.596;37.770;2023-07-13T06:31:42;98660.16;;;18.23;58.50
63096;BME280;49184;55.596;37.770;2023-07-13T06:34:08;98659.41;;;18.26;57.74
63096;BME280;49184;55.596;37.770;2023-07-13T06:36:34;98661.03;;;18.34;56.99
63096;BME280;49184;55.596;37.770;2023-07-13T06:39:04;98649.69;;;18.46;57.53
63096;BME280;49184;55.596;37.770;2023-07-13T06:41:31;98649.38;;;18.55;57.14
63096;BME280;49184;55.596;37.770;2023-07-13T06:43:58;98645.50;;;18.63;55.80
63096;BME280;49184;55.596;37.770;2023-07-13T06:46:24;98645.59;;;18.74;56.46
63096;BME280;49184;55.596;37.770;2023-07-13T06:48:50;98649.91;;;18.68;55.38
63096;BME280;49184;55.596;37.770;2023-07-13T06:51:16;98644.84;;;18.77;55.42
63096;BME280;49184;55.596;37.770;2023-07-13T06:53:42;98650.84;;;18.86;55.76
63096;BME280;49184;55.596;37.770;2023-07-13T06:56:09;98645.44;;;19.04;55.47
63096;BME280;49184;55.596;37.770;2023-07-13T06:58:36;98641.09;;;19.10;53.92
63096;BME280;49184;55.596;37.770;2023-07-13T07:01:04;98641.47;;;19.05;54.11
63096;BME280;49184;55.596;37.770;2023-07-13T07:03:30;98645.38;;;19.00;54.06
63096;BME280;49184;55.596;37.770;2023-07-13T07:06:00;98643.78;;;18.92;54.21
63096;BME280;49184;55.596;37.770;2023-07-13T07:08:26;98654.41;;;18.87;53.33
63096;BME280;49184;55.596;37.770;2023-07-13T07:10:51;98644.97;;;18.91;53.56
63096;BME280;49184;55.596;37.770;2023-07-13T07:13:19;98657.13;;;18.80;52.30
63096;BME280;49184;55.596;37.770;2023-07-13T07:15:47;98652.34;;;18.76;53.44
63096;BME280;49184;55.596;37.770;2023-07-13T07:18:16;98652.25;;;18.66;53.50
63096;BME280;49184;55.596;37.770;2023-07-13T07:20:42;98663.28;;;18.62;54.50
63096;BME280;49184;55.596;37.770;2023-07-13T07:23:07;98654.44;;;18.46;54.03
63096;BME280;49184;55.596;37.770;2023-07-13T07:25:34;98661.19;;;18.48;53.85
63096;BME280;49184;55.596;37.770;2023-07-13T07:28:50;98663.16;;;18.44;54.57
63096;BME280;49184;55.596;37.770;2023-07-13T07:31:16;98642.63;;;18.49;56.92
63096;BME280;49184;55.596;37.770;2023-07-13T07:33:43;98654.50;;;18.53;56.70
63096;BME280;49184;55.596;37.770;2023-07-13T07:36:09;98662.03;;;18.56;57.42
63096;BME280;49184;55.596;37.770;2023-07-13T07:38:37;98659.31;;;18.60;55.59
63096;BME280;49184;55.596;37.770;2023-07-13T07:41:26;98665.19;;;18.51;54.16
63096;BME280;49184;55.596;37.770;2023-07-13T07:43:54;98667.97;;;18.54;54.60
63096;BME280;49184;55.596;37.770;2023-07-13T07:46:20;98667.97;;;18.54;54.79
63096;BME280;49184;55.596;37.770;2023-07-13T07:48:46;98679.50;;;18.64;54.83
63096;BME280;49184;55.596;37.770;2023-07-13T07:51:12;98673.97;;;18.64;54.18
63096;BME280;49184;55.596;37.770;2023-07-13T07:53:49;98667.66;;;18.67;55.69
63096;BME280;49184;55.596;37.770;2023-07-13T07:56:15;98674.41;;;18.69;53.53
63096;BME280;49184;55.596;37.770;2023-07-13T07:58:42;98668.38;;;18.57;54.98
63096;BME280;49184;55.596;37.770;2023-07-13T08:01:08;98685.75;;;18.53;55.43
63096;BME280;49184;55.596;37.770;2023-07-13T08:03:44;98670.81;;;18.62;57.74
63096;BME280;49184;55.596;37.770;2023-07-13T08:06:09;98676.63;;;18.49;56.68
63096;BME280;49184;55.596;37.770;2023-07-13T08:08:41;98667.50;;;18.45;58.79
63096;BME280;49184;55.596;37.770;2023-07-13T08:13:57;98676.47;;;18.31;59.85
63096;BME280;49184;55.596;37.770;2023-07-13T08:16:25;98678.75;;;18.26;59.84
63096;BME280;49184;55.596;37.770;2023-07-13T08:18:51;98693.25;;;18.12;60.10
63096;BME280;49184;55.596;37.770;2023-07-13T08:21:17;98681.56;;;17.92;61.82
63096;BME280;49184;55.596;37.770;2023-07-13T08:23:46;98686.28;;;17.88;61.90
63096;BME280;49184;55.596;37.770;2023-07-13T08:26:12;98686.03;;;17.74;60.43
63096;BME280;49184;55.596;37.770;2023-07-13T08:28:38;98657.13;;;17.68;60.68
63096;BME280;49184;55.596;37.770;2023-07-13T08:31:04;98673.84;;;17.75;59.86
63096;BME280;49184;55.596;37.770;2023-07-13T08:33:31;98682.84;;;17.68;58.68
63096;BME280;49184;55.596;37.770;2023-07-13T08:35:57;98676.59;;;17.75;56.67
63096;BME280;49184;55.596;37.770;2023-07-13T08:38:23;98678.94;;;17.73;57.53
63096;BME280;49184;55.596;37.770;2023-07-13T08:40:50;98685.31;;;17.77;54.87
63096;BME280;49184;55.596;37.770;2023-07-13T08:43:19;98675.13;;;17.84;57.48
63096;BME280;49184;55.596;37.770;2023-07-13T08:45:46;98680.34;;;17.90;57.85
63096;BME280;49184;55.596;37.770;2023-07-13T08:48:17;98687.03;;;17.85;58.44
63096;BME280;49184;55.596;37.770;2023-07-13T08:53:22;98685.22;;;17.70;57.70
63096;BME280;49184;55.596;37.770;2023-07-13T08:55:50;98685.22;;;17.70;56.09
63096;BME280;49184;55.596;37.770;2023-07-13T08:58:18;98700.91;;;17.62;56.20
63096;BME280;49184;55.596;37.770;2023-07-13T09:00:48;98690.69;;;17.66;55.90
63096;BME280;49184;55.596;37.770;2023-07-13T09:03:25;98675.69;;;17.67;55.64
63096;BME280;49184;55.596;37.770;2023-07-13T09:05:58;98676.41;;;17.60;57.76
63096;BME280;49184;55.596;37.770;2023-07-13T09:08:42;98683.16;;;17.63;59.09
63096;BME280;49184;55.596;37.770;2023-07-13T09:16:09;98692.06;;;17.79;62.15
63096;BME280;49184;55.596;37.770;2023-07-13T09:18:46;98692.19;;;17.90;63.19
63096;BME280;49184;55.596;37.770;2023-07-13T09:21:18;98681.69;;;18.03;64.02
63096;BME280;49184;55.596;37.770;2023-07-13T09:23:49;98696.75;;;18.09;64.84
63096;BME280;49184;55.596;37.770;2023-07-13T09:26:19;98696.13;;;18.23;66.40
63096;BME280;49184;55.596;37.770;2023-07-13T09:28:55;98696.09;;;18.19;64.29
63096;BME280;49184;55.596;37.770;2023-07-13T09:31:24;98702.88;;;18.25;64.89
63096;BME280;49184;55.596;37.770;2023-07-13T09:33:55;98710.03;;;18.30;64.45
63096;BME280;49184;55.596;37.770;2023-07-13T09:38:59;98710.09;;;18.37;65.19
63096;BME280;49184;55.596;37.770;2023-07-13T09:41:41;98699.47;;;18.43;64.58
63096;BME280;49184;55.596;37.770;2023-07-13T09:44:13;98711.34;;;18.43;65.53
63096;BME280;49184;55.596;37.770;2023-07-13T09:46:43;98711.28;;;18.36;64.78
63096;BME280;49184;55.596;37.770;2023-07-13T09:49:13;98714.31;;;18.24;65.44
63096;BME280;49184;55.596;37.770;2023-07-13T09:51:43;98708.88;;;18.31;66.25
63096;BME280;49184;55.596;37.770;2023-07-13T09:54:32;98710.00;;;18.26;66.04
63096;BME280;49184;55.596;37.770;2023-07-13T09:56:58;98707.50;;;18.18;65.76
63096;BME280;49184;55.596;37.770;2023-07-13T09:59:27;98709.84;;;18.12;65.68
63096;BME280;49184;55.596;37.770;2023-07-13T10:01:55;98714.84;;;17.99;65.92
63096;BME280;49184;55.596;37.770;2023-07-13T10:04:26;98711.59;;;17.94;65.44
63096;BME280;49184;55.596;37.770;2023-07-13T10:06:52;98711.50;;;17.87;65.19
63096;BME280;49184;55.596;37.770;2023-07-13T10:09:30;98705.91;;;17.79;66.40
63096;BME280;49184;55.596;37.770;2023-07-13T10:11:58;98716.97;;;17.79;66.61
63096;BME280;49184;55.596;37.770;2023-07-13T10:14:24;98710.56;;;17.75;65.54
63096;BME280;49184;55.596;37.770;2023-07-13T10:17:00;98725.03;;;17.65;65.73
63096;BME280;49184;55.596;37.770;2023-07-13T10:19:31;98717.13;;;17.64;67.06
63096;BME280;49184;55.596;37.770;2023-07-13T10:22:10;98725.75;;;17.58;67.48
63096;BME280;49184;55.596;37.770;2023-07-13T10:24:38;98719.03;;;17.59;65.71
63096;BME280;49184;55.596;37.770;2023-07-13T10:29:44;98721.66;;;17.49;68.03
63096;BME280;49184;55.596;37.770;2023-07-13T10:32:12;98722.66;;;17.37;67.32
63096;BME280;49184;55.596;37.770;2023-07-13T10:34:39;98721.34;;;17.27;67.33
63096;BME280;49184;55.596;37.770;2023-07-13T10:37:05;98725.63;;;17.25;67.64
63096;BME280;49184;55.596;37.770;2023-07-13T10:39:34;98731.50;;;17.20;69.03
63096;BME280;49184;55.596;37.770;2023-07-13T10:42:04;98740.53;;;17.17;70.98
63096;BME280;49184;55.596;37.770;2023-07-13T10:44:31;98736.03;;;17.08;70.55
63096;BME280;49184;55.596;37.770;2023-07-13T10:47:00;98735.56;;;17.03;69.58
63096;BME280;49184;55.596;37.770;2023-07-13T10:49:28;98734.63;;;16.95;70.50
63096;BME280;49184;55.596;37.770;2023-07-13T10:51:55;98729.13;;;16.95;69.66
63096;BME280;49184;55.596;37.770;2023-07-13T10:54:22;98737.84;;;16.97;71.73
63096;BME280;49184;55.596;37.770;2023-07-13T10:57:06;98742.19;;;16.98;70.88
63096;BME280;49184;55.596;37.770;2023-07-13T10:59:33;98751.34;;;17.02;71.62
63096;BME280;49184;55.596;37.770;2023-07-13T11:04:39;98746.63;;;16.80;69.90
63096;BME280;49184;55.596;37.770;2023-07-13T11:07:10;98746.19;;;16.78;71.61
63096;BME280;49184;55.596;37.770;2023-07-13T11:09:38;98745.53;;;16.65;72.96
63096;BME280;49184;55.596;37.770;2023-07-13T11:12:08;98747.81;;;16.59;74.42
63096;BME280;49184;55.596;37.770;2023-07-13T11:14:36;98735.50;;;16.53;74.58
63096;BME280;49184;55.596;37.770;2023-07-13T11:17:50;98738.53;;;16.48;75.28
63096;BME280;49184;55.596;37.770;2023-07-13T11:19:52;98739.28;;;16.45;74.80
63096;BME280;49184;55.596;37.770;2023-07-13T11:22:23;98741.78;;;16.31;75.63
63096;BME280;49184;55.596;37.770;2023-07-13T11:24:50;98734.53;;;16.23;75.39
63096;BME280;49184;55.596;37.770;2023-07-13T11:27:36;98730.09;;;16.18;74.98
63096;BME280;49184;55.596;37.770;2023-07-13T11:30:07;98729.03;;;16.23;74.71
63096;BME280;49184;55.596;37.770;2023-07-13T11:32:33;98741.56;;;16.20;72.67
63096;BME280;49184;55.596;37.770;2023-07-13T11:34:58;98735.84;;;16.09;73.17
63096;BME280;49184;55.596;37.770;2023-07-13T11:37:25;98742.97;;;16.10;74.71
63096;BME280;49184;55.596;37.770;2023-07-13T11:39:54;98736.50;;;16.03;73.32
63096;BME280;49184;55.596;37.770;2023-07-13T11:42:20;98734.47;;;16.00;72.91
63096;BME280;49184;55.596;37.770;2023-07-13T11:44:49;98730.03;;;15.95;72.92
63096;BME280;49184;55.596;37.770;2023-07-13T11:47:19;98727.28;;;15.95;73.29
63096;BME280;49184;55.596;37.770;2023-07-13T11:49:52;98725.19;;;15.88;73.75
63096;BME280;49184;55.596;37.770;2023-07-13T11:52:22;98732.66;;;15.88;74.82
63096;BME280;49184;55.596;37.770;2023-07-13T11:54:50;98723.53;;;15.84;74.28
63096;BME280;49184;55.596;37.770;2023-07-13T11:59:48;98723.88;;;15.82;74.73
63096;BME280;49184;55.596;37.770;2023-07-13T12:02:17;98730.75;;;15.72;75.67
63096;BME280;49184;55.596;37.770;2023-07-13T12:04:50;98730.75;;;15.72;76.22
63096;BME280;49184;55.596;37.770;2023-07-13T12:07:20;98722.28;;;15.81;75.94
63096;BME280;49184;55.596;37.770;2023-07-13T12:09:48;98720.31;;;15.82;77.31
63096;BME280;49184;55.596;37.770;2023-07-13T12:12:21;98724.59;;;15.79;76.52
63096;BME280;49184;55.596;37.770;2023-07-13T12:14:51;98728.97;;;15.80;77.61
63096;BME280;49184;55.596;37.770;2023-07-13T12:17:20;98734.19;;;15.85;77.62
63096;BME280;49184;55.596;37.770;2023-07-13T12:19:50;98731.06;;;15.87;78.59
63096;BME280;49184;55.596;37.770;2023-07-13T12:22:17;98734.09;;;15.82;78.86
63096;BME280;49184;55.596;37.770;2023-07-13T12:24:45;98730.28;;;15.86;78.82
63096;BME280;49184;55.596;37.770;2023-07-13T12:27:25;98729.44;;;15.86;78.85
63096;BME280;49184;55.596;37.770;2023-07-13T12:29:52;98731.56;;;15.92;80.08
63096;BME280;49184;55.596;37.770;2023-07-13T12:32:23;98729.75;;;16.00;80.07
63096;BME280;49184;55.596;37.770;2023-07-13T12:34:53;98725.84;;;16.01;79.01
63096;BME280;49184;55.596;37.770;2023-07-13T12:37:19;98728.31;;;16.06;79.68
63096;BME280;49184;55.596;37.770;2023-07-13T12:39:48;98728.72;;;16.08;79.06
63096;BME280;49184;55.596;37.770;2023-07-13T12:42:27;98717.34;;;16.10;78.92
63096;BME280;49184;55.596;37.770;2023-07-13T12:45:11;98721.31;;;16.12;78.40
63096;BME280;49184;55.596;37.770;2023-07-13T12:47:44;98719.00;;;16.14;77.34
63096;BME280;49184;55.596;37.770;2023-07-13T12:50:17;98709.00;;;16.06;76.36
63096;BME280;49184;55.596;37.770;2023-07-13T12:52:44;98709.75;;;16.03;76.80
63096;BME280;49184;55.596;37.770;2023-07-13T12:55:19;98715.59;;;16.02;77.34
63096;BME280;49184;55.596;37.770;2023-07-13T12:57:55;98710.09;;;16.02;77.22
63096;BME280;49184;55.596;37.770;2023-07-13T13:00:23;98710.47;;;16.00;76.80
63096;BME280;49184;55.596;37.770;2023-07-13T13:03:06;98714.81;;;16.01;76.03
63096;BME280;49184;55.596;37.770;2023-07-13T13:05:38;98713.28;;;16.04;76.19
63096;BME280;49184;55.596;37.770;2023-07-13T13:08:07;98720.19;;;15.94;76.08
63096;BME280;49184;55.596;37.770;2023-07-13T13:10:33;98730.84;;;15.95;77.48
63096;BME280;49184;55.596;37.770;2023-07-13T13:13:01;98737.97;;;15.96;77.99
63096;BME280;49184;55.596;37.770;2023-07-13T13:15:29;98717.78;;;15.92;77.44
63096;BME280;49184;55.596;37.770;2023-07-13T13:17:55;98722.44;;;15.88;78.43
63096;BME280;49184;55.596;37.770;2023-07-13T13:20:23;98718.09;;;15.87;78.16